Lander, Wyoming
Current Conditions -  °F | °C
As of 1:53 AM on Wednesday 26 Nov 2014 (Local Time) from KLND Reporting Station
Haze Haze  
Wind Chill: 26°   Ceiling: 800
Heat Index: 26°   Visibility: 3mi
Dew Point: 25°   Wind: 0mph
Humidity: 96%   Direction: NA
Pressure: 30.11"   Gusts: NA
Location:  42.83°N, 108.73°W
Report Text: KLND 260853Z AUTO 00000KT 3SM BR OVC008 M03/M04 A3011 RMK AO2 SNE0755 SLP207 P0001 60002 T10331039 58001
Loading
Personal Weather Stations






























Interactive Weather Map New forecast layout! Learn more

10-Day Weather Forecast

Advertisements
Track Severe Weather on mobile